createdAt,value
2023-02-11T00:01:19.371Z,1684.8
2023-02-11T00:03:03.070Z,1682.8
2023-02-11T00:04:46.776Z,1681.8
2023-02-11T00:06:30.526Z,1684
2023-02-11T00:08:14.182Z,1685.1
2023-02-11T00:09:57.892Z,1683
2023-02-11T00:11:41.635Z,1682.7
2023-02-11T00:13:25.279Z,1679.5
2023-02-11T00:15:09.002Z,1682.3
2023-02-11T00:16:52.696Z,1675.3
2023-02-11T00:18:36.394Z,1668.5
2023-02-11T00:20:20.091Z,1665.6
2023-02-11T00:22:03.798Z,1662.4
2023-02-11T00:23:47.507Z,1663.2
2023-02-11T00:25:31.235Z,1661.1
2023-02-11T00:27:14.948Z,1659.3
2023-02-11T00:28:58.633Z,1660.8
2023-02-11T00:30:42.316Z,1662.1
2023-02-11T00:32:26.016Z,1665
2023-02-11T00:34:09.726Z,1668.5
2023-02-11T00:35:53.434Z,1668.9
2023-02-11T00:37:37.134Z,1669.9
2023-02-11T00:39:20.822Z,1668.5
2023-02-11T00:41:04.525Z,1665.7
2023-02-11T00:42:48.231Z,1669
2023-02-11T00:44:31.943Z,1663.8
2023-02-11T00:46:15.630Z,1656.8
2023-02-11T00:47:59.359Z,1655.4
2023-02-11T00:49:43.039Z,1656.4
2023-02-11T00:51:26.783Z,1657
2023-02-11T00:53:10.444Z,1653.8
2023-02-11T00:54:54.181Z,1656
2023-02-11T00:56:37.846Z,1656.2
2023-02-11T00:58:21.546Z,1653.1
2023-02-11T01:00:05.250Z,1651
2023-02-11T01:01:48.962Z,1646.6
2023-02-11T01:03:32.660Z,1637.9
2023-02-11T01:05:16.367Z,1631.1
2023-02-11T01:07:00.072Z,1635.2
2023-02-11T01:08:43.763Z,1633.4
2023-02-11T01:10:27.476Z,1633.6
2023-02-11T01:12:11.169Z,1634.4
2023-02-11T01:13:54.876Z,1638.9
2023-02-11T01:15:38.572Z,1641.8
2023-02-11T01:17:22.312Z,1644.8
2023-02-11T01:19:05.987Z,1648
2023-02-11T01:20:49.696Z,1646.2
2023-02-11T01:22:33.404Z,1645.5
2023-02-11T01:24:17.094Z,1636.9
2023-02-11T01:26:00.795Z,1630.4
2023-02-11T01:27:44.495Z,1626.6
2023-02-11T01:29:28.200Z,1629.4
2023-02-11T01:31:11.907Z,1624.8
2023-02-11T01:32:55.603Z,1624.8
2023-02-11T01:34:39.313Z,1624.3
2023-02-11T01:36:23.010Z,1617.8
2023-02-11T01:38:06.831Z,1609.8
2023-02-11T01:39:50.428Z,1606.4
2023-02-11T01:41:34.125Z,1594
2023-02-11T01:43:17.832Z,1593.6
2023-02-11T01:45:01.537Z,1586.7
2023-02-11T01:46:45.250Z,1586.1
2023-02-11T01:48:28.956Z,1581
2023-02-11T01:50:12.639Z,1583.7
2023-02-11T01:51:56.340Z,1583
2023-02-11T01:53:40.047Z,1580.9
2023-02-11T01:55:23.798Z,1579.2
2023-02-11T01:57:07.448Z,1564.3
2023-02-11T01:58:51.161Z,1554.1
2023-02-11T02:00:34.857Z,1559.1
2023-02-11T02:02:18.567Z,1564.7
2023-02-11T02:04:02.271Z,1557.3
2023-02-11T02:05:45.956Z,1553.6
2023-02-11T02:07:29.673Z,1552.5
2023-02-11T02:09:13.384Z,1551.6
2023-02-11T02:10:57.073Z,1548
2023-02-11T02:12:40.781Z,1543.4
2023-02-11T02:14:24.484Z,1543
2023-02-11T02:16:08.184Z,1544.9
2023-02-11T02:17:51.891Z,1544.2
2023-02-11T02:19:35.588Z,1544
2023-02-11T02:21:19.299Z,1540.6
2023-02-11T02:23:03.002Z,1535.4
2023-02-11T02:24:46.691Z,1532.3
2023-02-11T02:26:30.397Z,1522.7
2023-02-11T02:28:14.101Z,1517.7
2023-02-11T02:29:57.797Z,1522.4
2023-02-11T02:31:41.510Z,1515.8
2023-02-11T02:33:25.270Z,1512.6
2023-02-11T02:35:08.902Z,1509.2
2023-02-11T02:36:52.633Z,1510.1
2023-02-11T02:38:36.374Z,1512.8
2023-02-11T02:40:20.050Z,1509.3
2023-02-11T02:42:03.722Z,1508
2023-02-11T02:43:47.417Z,1505.1
2023-02-11T02:45:31.123Z,1503.8
2023-02-11T02:47:14.823Z,1500.5
2023-02-11T02:48:58.530Z,1492.6
2023-02-11T02:50:42.227Z,1491.4
2023-02-11T02:52:25.964Z,1493.1
2023-02-11T02:54:09.637Z,1490.1
2023-02-11T02:55:53.386Z,1488.1
2023-02-11T02:57:37.042Z,1489.3
2023-02-11T02:59:20.743Z,1489
2023-02-11T03:01:04.445Z,1485.3
2023-02-11T03:02:48.144Z,1483.3
2023-02-11T03:04:31.850Z,1478.1
2023-02-11T03:06:15.560Z,1469.8
2023-02-11T03:07:59.252Z,1466.2
2023-02-11T03:09:42.963Z,1456.8
2023-02-11T03:11:26.662Z,1455.2
2023-02-11T03:13:10.372Z,1454.6
2023-02-11T03:14:54.083Z,1455.4
2023-02-11T03:16:37.769Z,1448
2023-02-11T03:18:21.468Z,1445.7
2023-02-11T03:20:05.170Z,1450
2023-02-11T03:21:48.880Z,1449
2023-02-11T03:23:32.579Z,1449.2
2023-02-11T03:25:16.306Z,1449.5
2023-02-11T03:26:59.991Z,1445.9
2023-02-11T03:28:43.699Z,1441.3
2023-02-11T03:30:27.390Z,1441
2023-02-11T03:32:11.087Z,1437.9
2023-02-11T03:33:54.789Z,1433.8
2023-02-11T03:35:38.489Z,1435.7
2023-02-11T03:37:22.208Z,1436.8
2023-02-11T03:39:05.895Z,1430.8
2023-02-11T03:40:49.603Z,1423.3
2023-02-11T03:42:33.291Z,1422.1
2023-02-11T03:44:17.003Z,1417.4
2023-02-11T03:46:00.710Z,1413.7
2023-02-11T03:47:44.407Z,1413.6
2023-02-11T03:49:28.118Z,1410
2023-02-11T03:51:11.807Z,1405.8
2023-02-11T03:52:55.514Z,1402.1
2023-02-11T03:54:39.235Z,1402.1
2023-02-11T03:56:22.926Z,1405.4
2023-02-11T03:58:06.624Z,1407.7
2023-02-11T03:59:50.335Z,1405.2
2023-02-11T04:01:34.026Z,1396.4
2023-02-11T04:03:17.734Z,1393.1
2023-02-11T04:05:01.437Z,1394.7
2023-02-11T04:06:45.138Z,1389.9
2023-02-11T04:08:28.848Z,1386
2023-02-11T04:10:12.543Z,1387.2
2023-02-11T04:11:56.248Z,1387
2023-02-11T04:13:39.957Z,1388.3
2023-02-11T04:15:23.648Z,1384.7
2023-02-11T04:17:07.351Z,1383.2
2023-02-11T04:18:51.058Z,1383
2023-02-11T04:20:34.747Z,1379.6
2023-02-11T04:22:18.471Z,1376.8
2023-02-11T04:24:02.183Z,1379
2023-02-11T04:25:45.861Z,1382.5
2023-02-11T04:27:29.568Z,1378.8
2023-02-11T04:29:13.265Z,1376.6
2023-02-11T04:30:56.976Z,1377.1
2023-02-11T04:32:40.683Z,1376.4
2023-02-11T04:34:24.376Z,1375.4
2023-02-11T04:36:08.081Z,1372.4
2023-02-11T04:37:51.784Z,1368.8
2023-02-11T04:39:35.489Z,1367.1
2023-02-11T04:41:19.193Z,1367.4
2023-02-11T04:43:02.914Z,1365.2
2023-02-11T04:44:46.598Z,1363.1
2023-02-11T04:46:30.304Z,1358.5
2023-02-11T04:48:14.029Z,1353.8
2023-02-11T04:49:57.706Z,1355.1
2023-02-11T04:51:41.408Z,1355.8
2023-02-11T04:53:25.103Z,1352
2023-02-11T04:55:08.810Z,1349.8
2023-02-11T04:56:52.518Z,1349
2023-02-11T04:58:36.217Z,1348.7
2023-02-11T05:00:19.923Z,1347.4
2023-02-11T05:02:03.620Z,1347
2023-02-11T05:03:47.337Z,1344.4
2023-02-11T05:05:31.027Z,1344.5
2023-02-11T05:07:14.729Z,1344.9
2023-02-11T05:08:58.437Z,1343.7
2023-02-11T05:10:42.139Z,1343.5
2023-02-11T05:12:25.838Z,1344.1
2023-02-11T05:14:09.537Z,1340.6
2023-02-11T05:15:53.244Z,1334.9
2023-02-11T05:17:36.933Z,1332.6
2023-02-11T05:19:20.663Z,1334.2
2023-02-11T05:21:04.364Z,1334.9
2023-02-11T05:22:48.061Z,1332.7
2023-02-11T05:24:31.764Z,1327.1
2023-02-11T05:26:15.461Z,1322
2023-02-11T05:27:59.169Z,1322.4
2023-02-11T05:29:42.970Z,1323.4
2023-02-11T05:31:26.566Z,1324.2
2023-02-11T05:33:10.272Z,1324.8
2023-02-11T05:34:53.971Z,1325.9
2023-02-11T05:36:37.677Z,1324.9
2023-02-11T05:38:21.378Z,1324
2023-02-11T05:40:05.088Z,1323.1
2023-02-11T05:41:48.786Z,1322.1
2023-02-11T05:43:32.488Z,1317.8
2023-02-11T05:45:16.229Z,1317.9
2023-02-11T05:46:59.899Z,1316.6
2023-02-11T05:48:43.593Z,1313.9
2023-02-11T05:50:27.294Z,1312.9
2023-02-11T05:52:11.000Z,1312.7
2023-02-11T05:53:54.711Z,1307.7
2023-02-11T05:55:38.394Z,1311.2
2023-02-11T05:57:22.100Z,1309.8
2023-02-11T05:59:05.817Z,1308.5
2023-02-11T06:00:49.523Z,1307.8
2023-02-11T06:02:33.219Z,1309.1
2023-02-11T06:04:16.930Z,1311.5
2023-02-11T06:06:00.628Z,1313.8
2023-02-11T06:07:44.329Z,1312.5
2023-02-11T06:09:28.019Z,1308.7
2023-02-11T06:11:11.724Z,1310
2023-02-11T06:12:55.484Z,1308.6
2023-02-11T06:14:39.127Z,1305
2023-02-11T06:16:22.848Z,1303.8
2023-02-11T06:18:06.662Z,1302.4
2023-02-11T06:19:50.239Z,1302.9
2023-02-11T06:21:33.942Z,1299.7
2023-02-11T06:23:17.641Z,1302.2
2023-02-11T06:25:01.387Z,1299.3
2023-02-11T06:26:45.060Z,1299.3
2023-02-11T06:28:28.756Z,1298.7
2023-02-11T06:30:12.477Z,1297.3
2023-02-11T06:31:56.173Z,1294.1
2023-02-11T06:33:39.859Z,1295.2
2023-02-11T06:35:23.570Z,1297.6
2023-02-11T06:37:07.270Z,1413.2
2023-02-11T06:38:50.984Z,1425
2023-02-11T06:40:34.694Z,1418.7
2023-02-11T06:42:18.374Z,1432.7
2023-02-11T06:44:02.135Z,1450.5
2023-02-11T06:45:45.805Z,1465.2
2023-02-11T06:47:29.471Z,1483.1
2023-02-11T06:49:13.183Z,1492.2
2023-02-11T06:50:56.890Z,1500.3
2023-02-11T06:52:40.599Z,1504.6
2023-02-11T06:54:24.300Z,1507.7
2023-02-11T06:56:08.001Z,1509.8
2023-02-11T06:57:51.702Z,1523.4
2023-02-11T06:59:35.405Z,1530.5
2023-02-11T07:01:19.201Z,1535
2023-02-11T07:03:02.835Z,1538.5
2023-02-11T07:04:46.508Z,1539.5
2023-02-11T07:06:30.189Z,1544.6
2023-02-11T07:08:13.964Z,1544
2023-02-11T07:09:57.721Z,1547.2
2023-02-11T07:11:41.317Z,1545.8
2023-02-11T07:13:25.028Z,1547.8
2023-02-11T07:15:08.715Z,1550.1
2023-02-11T07:16:52.425Z,1542.9
2023-02-11T07:18:36.130Z,1544.6
2023-02-11T07:20:19.845Z,1548.5
2023-02-11T07:22:03.541Z,1553.8
2023-02-11T07:23:47.245Z,1552.5
2023-02-11T07:25:30.945Z,1554.4
2023-02-11T07:27:14.690Z,1552.9
2023-02-11T07:28:58.347Z,1552.9
2023-02-11T07:30:42.058Z,1548.5
2023-02-11T07:32:25.763Z,1546.7
2023-02-11T07:34:09.448Z,1544.6
2023-02-11T07:35:53.168Z,1543.4
2023-02-11T07:37:36.882Z,1536.3
2023-02-11T07:39:20.566Z,1532
2023-02-11T07:41:04.270Z,1531.5
2023-02-11T07:42:48.032Z,1528.4
2023-02-11T07:44:31.669Z,1528.9
2023-02-11T07:46:15.492Z,1529.7
2023-02-11T07:49:42.792Z,1519
2023-02-11T07:51:26.492Z,1514.4
2023-02-11T07:53:10.183Z,1512.4
2023-02-11T07:54:53.892Z,1509.3
2023-02-11T07:56:37.602Z,1499.2
2023-02-11T07:58:21.281Z,1490.1
2023-02-11T08:00:04.996Z,1482.6
2023-02-11T08:01:48.701Z,1481.9
2023-02-11T08:03:32.395Z,1477.3
2023-02-11T08:05:16.101Z,1476.8
2023-02-11T08:06:59.801Z,1474.7
2023-02-11T08:08:43.516Z,1474.3
2023-02-11T08:10:27.207Z,1477.7
2023-02-11T08:12:10.916Z,1474.9
2023-02-11T08:13:54.616Z,1474.9
2023-02-11T08:15:38.316Z,1465.2
2023-02-11T08:17:22.080Z,1455.6
2023-02-11T08:19:05.735Z,1455.5
2023-02-11T08:20:49.422Z,1449.3
2023-02-11T08:22:33.173Z,1445.8
2023-02-11T08:24:16.824Z,1441
2023-02-11T08:26:00.547Z,1440.9
2023-02-11T08:27:44.230Z,1435.7
2023-02-11T08:29:27.968Z,1433.4
2023-02-11T08:31:11.691Z,1430.7
2023-02-11T08:32:55.344Z,1426.7
2023-02-11T08:34:39.065Z,1422.9
2023-02-11T08:36:22.767Z,1417.2
2023-02-11T08:38:06.492Z,1414
2023-02-11T08:39:50.156Z,1414.9
2023-02-11T08:41:33.842Z,1410.1
2023-02-11T08:43:17.600Z,1409.6
2023-02-11T08:45:01.290Z,1407.4
2023-02-11T08:46:44.963Z,1404.8
2023-02-11T08:48:28.662Z,1402.8
2023-02-11T08:50:12.381Z,1395.9
2023-02-11T08:51:56.089Z,1393.5
2023-02-11T08:53:39.791Z,1390
2023-02-11T08:55:23.479Z,1387.1
2023-02-11T08:57:07.182Z,1378
2023-02-11T08:58:50.925Z,1370
2023-02-11T09:00:34.586Z,1367.8
2023-02-11T09:02:18.290Z,1365.6
2023-02-11T09:04:02.007Z,1373.2
2023-02-11T09:05:45.689Z,1371
2023-02-11T09:07:29.397Z,1367.9
2023-02-11T09:09:13.098Z,1365.1
2023-02-11T09:10:56.806Z,1367
2023-02-11T09:12:40.509Z,1367.1
2023-02-11T09:14:24.240Z,1363.3
2023-02-11T09:16:07.955Z,1362.5
2023-02-11T09:17:51.634Z,1357.9
2023-02-11T09:19:35.311Z,1355.9
2023-02-11T09:21:19.013Z,1355.8
2023-02-11T09:23:02.725Z,1353.9
2023-02-11T09:24:46.425Z,1347.2
2023-02-11T09:26:30.131Z,1342.3
2023-02-11T09:28:13.873Z,1344.8
2023-02-11T09:29:57.605Z,1342.5
2023-02-11T09:31:41.260Z,1340.7
2023-02-11T09:33:24.938Z,1338.1
2023-02-11T09:35:08.641Z,1334.9
2023-02-11T09:36:52.350Z,1331.7
2023-02-11T09:38:36.048Z,1322.8
2023-02-11T09:40:19.755Z,1321.4
2023-02-11T09:42:03.483Z,1317.2
2023-02-11T09:43:47.174Z,1306.4
2023-02-11T09:45:30.863Z,1307.1
2023-02-11T09:47:14.565Z,1307.7
2023-02-11T09:48:58.269Z,1301.1
2023-02-11T09:50:41.986Z,1300.3
2023-02-11T09:52:25.673Z,1298.5
2023-02-11T09:54:09.376Z,1298.6
2023-02-11T09:55:53.081Z,1303.2
2023-02-11T09:57:36.786Z,1302.3
2023-02-11T09:59:20.481Z,1302.8
2023-02-11T10:01:04.186Z,1300.9
2023-02-11T10:02:47.892Z,1308.4
2023-02-11T10:04:31.604Z,1314.3
2023-02-11T10:06:15.294Z,1311.4
2023-02-11T10:07:59.006Z,1312.6
2023-02-11T10:09:42.695Z,1315.7
2023-02-11T10:11:26.401Z,1319.9
2023-02-11T10:13:10.100Z,1321.2
2023-02-11T10:14:53.825Z,1321.4
2023-02-11T10:16:37.507Z,1322.7
2023-02-11T10:18:21.237Z,1326.2
2023-02-11T10:20:04.910Z,1324.1
2023-02-11T10:21:48.617Z,1322.7
2023-02-11T10:23:32.329Z,1323
2023-02-11T10:25:16.022Z,1324.3
2023-02-11T10:26:59.724Z,1327.7
2023-02-11T10:28:43.435Z,1324.9
2023-02-11T10:30:27.128Z,1320
2023-02-11T10:32:10.832Z,1321.7
2023-02-11T10:33:54.534Z,1325.2
2023-02-11T10:35:38.286Z,1323.3
2023-02-11T10:37:21.938Z,1323
2023-02-11T10:39:05.643Z,1325.7
2023-02-11T10:40:49.351Z,1328.2
2023-02-11T10:42:33.057Z,1331.2
2023-02-11T10:44:16.747Z,1334.8
2023-02-11T10:46:00.451Z,1338.6
2023-02-11T10:47:44.155Z,1346.5
2023-02-11T10:49:27.854Z,1360.5
2023-02-11T10:51:11.564Z,1382
2023-02-11T10:52:55.262Z,1389
2023-02-11T10:54:38.962Z,1391.2
2023-02-11T10:56:22.672Z,1390.9
2023-02-11T10:58:06.402Z,1389
2023-02-11T10:59:50.082Z,1385.8
2023-02-11T11:01:33.776Z,1381
2023-02-11T11:03:17.486Z,1381.6
2023-02-11T11:05:01.264Z,1386
2023-02-11T11:06:45.058Z,1388.4
2023-02-11T11:08:28.603Z,1387
2023-02-11T11:10:12.445Z,1382.4
2023-02-11T11:11:56.201Z,1375
2023-02-11T11:13:39.867Z,1367
2023-02-11T11:15:23.572Z,1367.7
2023-02-11T11:17:07.117Z,1368.7
2023-02-11T11:18:50.967Z,1365
2023-02-11T11:20:34.663Z,1362.9
2023-02-11T11:22:18.399Z,1361.6
2023-02-11T11:24:01.944Z,1366.9
2023-02-11T11:25:45.796Z,1368.3
2023-02-11T11:27:29.320Z,1368.1
2023-02-11T11:29:13.023Z,1368
2023-02-11T11:30:56.911Z,1365.3
2023-02-11T11:32:40.428Z,1364.7
2023-02-11T11:34:24.146Z,1368.1
2023-02-11T11:36:07.822Z,1370.2
2023-02-11T11:37:51.538Z,1376
2023-02-11T11:39:35.269Z,1376.7
2023-02-11T11:41:18.935Z,1376.2
2023-02-11T11:43:02.680Z,1379.7
2023-02-11T11:44:46.337Z,1384.6
2023-02-11T11:46:30.040Z,1392
2023-02-11T11:48:13.750Z,1397.2
2023-02-11T11:49:57.438Z,1395.6
2023-02-11T11:51:41.143Z,1394.5
2023-02-11T11:53:24.859Z,1398.6
2023-02-11T11:55:08.546Z,1400.5
2023-02-11T11:56:52.250Z,1406.7
2023-02-11T11:58:35.988Z,1409.6
2023-02-11T12:00:19.650Z,1413.8
2023-02-11T12:02:03.350Z,1411.6
2023-02-11T12:03:47.061Z,1409.3
2023-02-11T12:05:30.772Z,1416.5
2023-02-11T12:07:14.462Z,1421.2
2023-02-11T12:08:58.168Z,1430.9
2023-02-11T12:10:41.867Z,1433.5
2023-02-11T12:12:25.575Z,1435.1
2023-02-11T12:14:09.276Z,1439.8
2023-02-11T12:15:53.031Z,1444.7
2023-02-11T12:17:36.683Z,1443.6
2023-02-11T12:19:20.380Z,1453.6
2023-02-11T12:21:04.074Z,1460.4
2023-02-11T12:22:47.826Z,1459.3
2023-02-11T12:24:31.487Z,1459.3
2023-02-11T12:26:15.224Z,1462
2023-02-11T12:27:58.888Z,1465.3
2023-02-11T12:29:42.689Z,1431.8
2023-02-11T12:31:26.310Z,1206.5
2023-02-11T12:33:10.000Z,1120.2
2023-02-11T12:34:53.716Z,887.1
2023-02-11T12:36:37.409Z,739
2023-02-11T12:38:21.111Z,1084.1
2023-02-11T12:40:04.833Z,917.5
2023-02-11T12:41:48.509Z,891.3
2023-02-11T12:43:32.393Z,891.5
2023-02-11T12:45:15.921Z,941.8
2023-02-11T12:46:59.633Z,979.8
2023-02-11T12:48:43.323Z,999.4
2023-02-11T12:50:27.028Z,1003
2023-02-11T12:52:10.722Z,1019
2023-02-11T12:53:54.428Z,1036.3
2023-02-11T12:55:38.134Z,1038.3
2023-02-11T12:57:21.993Z,1057.4
2023-02-11T12:59:05.539Z,1070.5
2023-02-11T13:00:49.238Z,1082.2
2023-02-11T13:02:32.944Z,1089.1
2023-02-11T13:06:00.431Z,1104.1
2023-02-11T13:07:44.065Z,1107.1
2023-02-11T13:09:27.758Z,1109.5
2023-02-11T13:11:11.459Z,1113.3
2023-02-11T13:12:55.167Z,1121.5
2023-02-11T13:14:38.868Z,1120.7
2023-02-11T13:16:22.573Z,1118.1
2023-02-11T13:18:06.272Z,1119.5
2023-02-11T13:19:49.973Z,1133.1
2023-02-11T13:21:33.688Z,1141.3
2023-02-11T13:23:17.389Z,1144.4
2023-02-11T13:25:01.082Z,1142.5
2023-02-11T13:26:44.785Z,1147
2023-02-11T13:28:28.543Z,1144.9
2023-02-11T13:30:12.316Z,1146.2
2023-02-11T13:33:39.839Z,1151.9
2023-02-11T13:35:23.294Z,1152.7
2023-02-11T13:37:06.998Z,1152.2
2023-02-11T13:38:50.696Z,1152.9
2023-02-11T13:40:34.403Z,1152.7
2023-02-11T13:42:18.105Z,1152.8
2023-02-11T13:44:01.867Z,1155.2
2023-02-11T13:45:45.514Z,1155.9
2023-02-11T13:47:29.212Z,1160.9
2023-02-11T13:49:12.920Z,1168.6
2023-02-11T13:50:56.668Z,1172.5
2023-02-11T13:52:40.538Z,1172.6
2023-02-11T13:54:24.045Z,1174.6
2023-02-11T13:56:07.783Z,1176.4
2023-02-11T13:57:51.433Z,1178.4
2023-02-11T13:59:35.181Z,1182.6
2023-02-11T14:01:18.836Z,1186.7
2023-02-11T14:03:02.537Z,1185.9
2023-02-11T14:04:46.241Z,1182.6
2023-02-11T14:06:29.934Z,1185.9
2023-02-11T14:08:13.691Z,1189.7
2023-02-11T14:09:57.343Z,1191.6
2023-02-11T14:11:41.059Z,1194.8
2023-02-11T14:13:24.758Z,1199.3
2023-02-11T14:15:08.449Z,1204.1
2023-02-11T14:16:52.162Z,1212
2023-02-11T14:18:35.857Z,1219.2
2023-02-11T14:20:19.574Z,1228.1
2023-02-11T14:22:03.329Z,1233.7
2023-02-11T14:23:46.965Z,1239.2
2023-02-11T14:25:30.675Z,1242.5
2023-02-11T14:27:14.377Z,1250
2023-02-11T14:28:58.093Z,1248.8
2023-02-11T14:30:41.785Z,1252.9
2023-02-11T14:32:25.491Z,1257.8
2023-02-11T14:34:09.177Z,1263.5
2023-02-11T14:35:53.137Z,1271.1
2023-02-11T14:37:36.628Z,1279.3
2023-02-11T14:39:20.291Z,1291.8
2023-02-11T14:41:03.995Z,1302.3
2023-02-11T14:42:47.703Z,1312.6
2023-02-11T14:44:31.411Z,1327.3
2023-02-11T14:46:15.108Z,1332.3
2023-02-11T14:47:58.859Z,1323.2
2023-02-11T14:49:42.506Z,1312.7
2023-02-11T14:51:26.249Z,1307.2
2023-02-11T14:53:09.905Z,1295
2023-02-11T14:54:53.630Z,1271.7
2023-02-11T14:56:37.352Z,1234.7
2023-02-11T14:58:21.081Z,1212.9
2023-02-11T15:00:04.703Z,1202.3
2023-02-11T15:01:48.413Z,1191.3
2023-02-11T15:03:32.138Z,1176.5
2023-02-11T15:05:15.818Z,1153.9
2023-02-11T15:06:59.529Z,1120.3
2023-02-11T15:08:43.229Z,1112.8
2023-02-11T15:10:26.926Z,1110.1
2023-02-11T15:12:10.675Z,1103.3
2023-02-11T15:13:54.374Z,1092.9
2023-02-11T15:15:38.027Z,1084.6
2023-02-11T15:17:21.728Z,1068.4
2023-02-11T15:19:05.438Z,1063.4
2023-02-11T15:20:49.143Z,1057
2023-02-11T15:22:32.847Z,1063.6
2023-02-11T15:24:16.548Z,1068.8
2023-02-11T15:26:00.250Z,1068.5
2023-02-11T15:27:43.974Z,1061.3
2023-02-11T15:29:27.657Z,1060.6
2023-02-11T15:31:11.350Z,1064.8
2023-02-11T15:32:55.061Z,1061.1
2023-02-11T15:34:38.759Z,1057.5
2023-02-11T15:36:22.462Z,1060
2023-02-11T15:38:06.165Z,1063
2023-02-11T15:39:49.877Z,1065
2023-02-11T15:41:33.631Z,1067.7
2023-02-11T15:43:17.275Z,1068.5
2023-02-11T15:45:00.973Z,1071.6
2023-02-11T15:46:44.682Z,1066.3
2023-02-11T15:48:28.386Z,1059.8
2023-02-11T15:50:12.081Z,1051.5
2023-02-11T15:51:55.804Z,1047.5
2023-02-11T15:53:39.483Z,1043.7
2023-02-11T15:55:23.201Z,1047.2
2023-02-11T15:57:06.936Z,1044.9
2023-02-11T15:58:50.592Z,1041.5
2023-02-11T16:00:34.341Z,1037.4
2023-02-11T16:02:17.998Z,1035.1
2023-02-11T16:04:01.768Z,1028.8
2023-02-11T16:05:45.506Z,1022.6
2023-02-11T16:07:29.098Z,1018.8
2023-02-11T16:09:12.811Z,1016.4
2023-02-11T16:10:56.512Z,1011.7
2023-02-11T16:12:40.210Z,1004.8
2023-02-11T16:14:23.922Z,995.1
2023-02-11T16:16:07.624Z,989.3
2023-02-11T16:17:51.319Z,990.2
2023-02-11T16:19:35.016Z,983.9
2023-02-11T16:21:18.727Z,975
2023-02-11T16:23:04.626Z,965
2023-02-11T16:24:46.132Z,955.5
2023-02-11T16:26:29.876Z,952.7
2023-02-11T16:28:13.539Z,952.9
2023-02-11T16:29:57.232Z,950.8
2023-02-11T16:31:40.946Z,944.3
2023-02-11T16:33:24.650Z,939.2
2023-02-11T16:35:08.439Z,937
2023-02-11T16:36:52.052Z,933.9
2023-02-11T16:38:36.803Z,933
2023-02-11T16:40:19.448Z,930.6
2023-02-11T16:42:03.147Z,921.4
2023-02-11T16:43:46.857Z,912.1
2023-02-11T16:45:30.556Z,911.5
2023-02-11T16:47:14.268Z,911.2
2023-02-11T16:48:58.005Z,906.7
2023-02-11T16:50:41.666Z,902.7
2023-02-11T16:52:25.441Z,903.1
2023-02-11T16:54:09.088Z,904
2023-02-11T16:55:52.795Z,911.2
2023-02-11T16:57:36.482Z,907.4
2023-02-11T16:59:20.184Z,909
2023-02-11T17:01:03.920Z,913.4
2023-02-11T17:02:47.587Z,913
2023-02-11T17:04:31.312Z,911.5
2023-02-11T17:06:14.990Z,908.1
2023-02-11T17:07:58.690Z,908.4
2023-02-11T17:09:42.395Z,909.1
2023-02-11T17:11:26.110Z,911.2
2023-02-11T17:13:09.794Z,917.4
2023-02-11T17:14:53.501Z,920.8
2023-02-11T17:16:37.246Z,918.5
2023-02-11T17:18:20.899Z,918.3
2023-02-11T17:20:04.613Z,919.3
2023-02-11T17:21:48.310Z,921.6
2023-02-11T17:23:32.239Z,924
2023-02-11T17:25:15.707Z,921.6
2023-02-11T17:26:59.409Z,916.6
2023-02-11T17:28:43.611Z,914
2023-02-11T17:30:26.818Z,914.7
2023-02-11T17:32:10.520Z,917.4
2023-02-11T17:33:54.321Z,918
2023-02-11T17:35:37.912Z,914.3
2023-02-11T17:37:21.636Z,911.5
2023-02-11T17:39:05.331Z,909.3
2023-02-11T17:40:49.028Z,912.4
2023-02-11T17:42:32.733Z,915.6
2023-02-11T17:44:16.423Z,917.4
2023-02-11T17:46:00.142Z,920.2
2023-02-11T17:47:43.846Z,924.6
2023-02-11T17:49:27.542Z,924.8
2023-02-11T17:51:11.296Z,922.8
2023-02-11T17:52:54.948Z,922.3
2023-02-11T17:54:38.656Z,923.1
2023-02-11T17:56:22.349Z,924.7
2023-02-11T17:58:06.085Z,933.7
2023-02-11T17:59:49.757Z,959.7
2023-02-11T18:01:33.467Z,979.8
2023-02-11T18:03:19.609Z,992.1
2023-02-11T18:05:00.910Z,998.5
2023-02-11T18:06:44.565Z,1002.9
2023-02-11T18:08:28.332Z,1010.7
2023-02-11T18:10:11.966Z,1018.9
2023-02-11T18:11:55.739Z,1026.4
2023-02-11T18:13:40.206Z,1028.8
2023-02-11T18:15:23.095Z,1036.7
2023-02-11T18:17:06.772Z,1043.8
2023-02-11T18:18:50.474Z,1049.1
2023-02-11T18:20:34.183Z,1052.4
2023-02-11T18:22:17.877Z,1051.2
2023-02-11T18:24:01.581Z,1055.6
2023-02-11T18:25:45.292Z,1060.4
2023-02-11T18:27:28.991Z,1064.1
2023-02-11T18:29:12.713Z,1064.9
2023-02-11T18:30:56.404Z,1069.3
2023-02-11T18:32:40.160Z,1072.6
2023-02-11T18:34:23.808Z,1077
2023-02-11T18:36:07.502Z,1076.4
2023-02-11T18:37:51.210Z,1075.6
2023-02-11T18:39:34.913Z,1082
2023-02-11T18:41:18.616Z,1083.7
2023-02-11T18:43:02.326Z,1086.4
2023-02-11T18:46:29.733Z,1090.5
2023-02-11T18:48:13.431Z,1092.9
2023-02-11T18:49:57.124Z,1092.5
2023-02-11T18:51:40.828Z,1093.3
2023-02-11T18:53:24.546Z,1096
2023-02-11T18:55:08.227Z,1101.4
2023-02-11T18:58:36.758Z,1100.1
2023-02-11T19:00:19.344Z,1103
2023-02-11T19:02:03.051Z,1107.5
2023-02-11T19:03:46.746Z,1105.8
2023-02-11T19:05:30.457Z,1105.6
2023-02-11T19:07:14.201Z,1102.9
2023-02-11T19:08:57.852Z,1107
2023-02-11T19:10:41.566Z,1118.2
2023-02-11T19:12:25.261Z,1122.4
2023-02-11T19:14:08.967Z,1127.9
2023-02-11T19:15:52.674Z,1133.9
2023-02-11T19:17:36.353Z,1136.5
2023-02-11T19:19:20.067Z,1139.9
2023-02-11T19:21:03.776Z,1144.9
2023-02-11T19:22:47.473Z,1147.6
2023-02-11T19:24:31.175Z,1147.8
2023-02-11T19:26:14.880Z,1150.1
2023-02-11T19:27:58.583Z,1153.2
2023-02-11T19:29:42.294Z,1153.3
2023-02-11T19:31:25.984Z,1149.4
2023-02-11T19:33:09.690Z,1146.6
2023-02-11T19:34:53.408Z,1139.3
2023-02-11T19:36:37.095Z,1133.5
2023-02-11T19:38:21.023Z,1134.2
2023-02-11T19:41:48.200Z,1133.8
2023-02-11T19:43:31.921Z,1134.3
2023-02-11T19:45:15.607Z,1135.4
2023-02-11T19:46:59.308Z,1133.8
2023-02-11T19:48:43.042Z,1132.3
2023-02-11T19:50:26.718Z,1131.2
2023-02-11T19:52:10.412Z,1133.1
2023-02-11T19:53:54.118Z,1128.2
2023-02-11T19:55:37.809Z,1126.3
2023-02-11T19:57:21.520Z,1123.4
2023-02-11T19:59:05.221Z,1124.5
2023-02-11T20:00:48.921Z,1120.7
2023-02-11T20:02:32.624Z,1119.3
2023-02-11T20:04:16.328Z,1120.2
2023-02-11T20:06:00.028Z,1127.1
2023-02-11T20:07:43.741Z,1128.9
2023-02-11T20:09:27.437Z,1125.2
2023-02-11T20:11:11.140Z,1118.8
2023-02-11T20:12:54.845Z,1114.1
2023-02-11T20:14:38.538Z,1117.1
2023-02-11T20:16:22.234Z,1114
2023-02-11T20:18:05.951Z,1114.5
2023-02-11T20:19:49.644Z,1114.7
2023-02-11T20:21:33.356Z,1117.7
2023-02-11T20:23:17.054Z,1121.9
2023-02-11T20:25:00.745Z,1120.3
2023-02-11T20:26:44.473Z,1118.5
2023-02-11T20:28:28.153Z,1111.9
2023-02-11T20:30:11.871Z,1111.7
2023-02-11T20:31:55.564Z,1115.7
2023-02-11T20:33:39.266Z,1114.2
2023-02-11T20:35:23.287Z,1112.9
2023-02-11T20:37:06.679Z,1111.4
2023-02-11T20:38:50.369Z,1111.1
2023-02-11T20:40:34.072Z,1107.4
2023-02-11T20:42:17.828Z,1113.7
2023-02-11T20:44:01.501Z,1113.6
2023-02-11T20:45:45.192Z,1112.7
2023-02-11T20:47:28.879Z,1115.2
2023-02-11T20:49:12.587Z,1114.8
2023-02-11T20:50:56.285Z,1119
2023-02-11T20:52:39.988Z,1119.2
2023-02-11T20:54:23.737Z,1123.1
2023-02-11T20:56:07.395Z,1121.9
2023-02-11T20:57:51.142Z,1122.8
2023-02-11T20:59:34.799Z,1127.5
2023-02-11T21:01:18.499Z,1128.2
2023-02-11T21:03:02.220Z,1128.1
2023-02-11T21:04:45.914Z,1123.2
2023-02-11T21:06:29.605Z,1120
2023-02-11T21:08:13.329Z,1111.6
2023-02-11T21:09:57.021Z,1110.2
2023-02-11T21:11:40.721Z,1112.7
2023-02-11T21:13:24.417Z,1116.9
2023-02-11T21:15:08.135Z,1114.6
2023-02-11T21:16:51.823Z,1115
2023-02-11T21:18:35.531Z,1116.2
2023-02-11T21:20:19.284Z,1118
2023-02-11T21:22:02.950Z,1119.1
2023-02-11T21:23:46.643Z,1119.4
2023-02-11T21:25:30.346Z,1121.2
2023-02-11T21:27:14.050Z,1122.4
2023-02-11T21:28:58.038Z,1122.3
2023-02-11T21:30:41.449Z,1122
2023-02-11T21:32:25.168Z,1123.8
2023-02-11T21:34:08.881Z,1123.5
2023-02-11T21:35:52.569Z,1122.2
2023-02-11T21:37:36.279Z,1125.1
2023-02-11T21:39:19.985Z,1132.7
2023-02-11T21:41:03.662Z,1133.3
2023-02-11T21:42:47.368Z,1137.1
2023-02-11T21:44:31.069Z,1139.2
2023-02-11T21:46:14.771Z,1136
2023-02-11T21:47:58.493Z,1157.9
2023-02-11T21:49:42.186Z,1270.5
2023-02-11T21:51:25.918Z,1288.2
2023-02-11T21:53:09.618Z,1299.6
2023-02-11T21:54:53.289Z,1303.8
2023-02-11T21:56:37.024Z,1305.8
2023-02-11T21:58:20.692Z,1302.9